Susquehanna — WDD9976 — position and weather

sailwx.info

Track history (hours):
 
Tides and Currents Weather Stations Pressure Air Temp Water Temp Dewpoint Dewpoint Depression Visibility Wind Speed Wind Dir Waves Ship Positions

Susquehanna

Owner: Vane Line Bunkering, Inc., Baltimore, MD. More information available from US FCC via Universal Licensing System and Coast Guard Vessel Documentation Center.

Last reported at 2016-Aug-22 08:21 UTC. Time now 2016-Aug-31 06:06 UTC.
Position N 25°40' W 080°03'.
Warning: this ship's position is 8 days out of date.

Length 28 m; draft 4.2 m.

Type: Tug. MMSI: 367318750.

Date/timePositionNaut miles runAvg speedWind from/ knotsBaromVisibWave heightAir tempDewpointWater temp
2016-Aug-22 08:21N 25°40' W 080°03'5 6.6
2016-Aug-22 07:34N 25°45' W 080°03'7 6.9
2016-Aug-22 06:34N 25°52' W 080°03'7 7.1
2016-Aug-22 05:34N 25°59' W 080°04'7 7.0
2016-Aug-22 04:33N 26°07' W 080°03'7 7.0
2016-Aug-22 03:33N 26°13' W 080°03'7 6.9
2016-Aug-22 02:33N 26°20' W 080°02'6 6.4
2016-Aug-22 01:33N 26°27' W 080°01'6 6.0
2016-Aug-22 00:33N 26°33' W 080°01'22 5.5
2016-Aug-21 20:33N 26°55' W 079°60'8 7.7
2016-Aug-21 19:33N 27°02' W 080°01'  
2016-Aug-18 11:20N 36°51' W 075°55'146 8.7
2016-Aug-17 18:32N 39°14' W 076°33'1 1.0
2016-Aug-17 17:30N 39°15' W 076°34'0 0.0
2016-Aug-17 16:30N 39°15' W 076°34'0 0.0
2016-Aug-17 15:30N 39°15' W 076°34'0 0.0
2016-Aug-17 14:30N 39°15' W 076°34'0 0.0
2016-Aug-17 13:30N 39°15' W 076°34'0 0.0
2016-Aug-17 12:30N 39°15' W 076°34'0 0.0
2016-Aug-17 11:30N 39°15' W 076°34'0 0.0
2016-Aug-17 10:30N 39°15' W 076°34'0 0.0
2016-Aug-17 09:30N 39°15' W 076°34'0 0.0
2016-Aug-17 08:30N 39°15' W 076°34'0 0.0
2016-Aug-17 07:30N 39°15' W 076°34'0 0.0
2016-Aug-17 06:30N 39°15' W 076°34'0 0.0
2016-Aug-17 04:30N 39°15' W 076°34'0 0.0
2016-Aug-17 03:30N 39°15' W 076°34'0 0.0
2016-Aug-17 02:30N 39°15' W 076°34'0 0.0
2016-Aug-17 01:30N 39°15' W 076°34'0 0.0
2016-Aug-17 00:30N 39°15' W 076°34'0 0.0
2016-Aug-16 23:20N 39°15' W 076°34'0 0.0
2016-Aug-16 22:30N 39°15' W 076°34'0 0.0
2016-Aug-16 21:30N 39°15' W 076°34'0 0.0
2016-Aug-16 20:30N 39°15' W 076°34'0 0.0
2016-Aug-16 19:30N 39°15' W 076°34'0 0.0
2016-Aug-16 18:30N 39°15' W 076°34'0 0.0
2016-Aug-16 17:30N 39°15' W 076°34'0 0.0
2016-Aug-16 16:30N 39°15' W 076°34'0 0.0
2016-Aug-16 15:30N 39°15' W 076°34'0 0.0
2016-Aug-16 14:30N 39°15' W 076°34'0 0.0
2016-Aug-16 13:30N 39°15' W 076°34'0 0.0
2016-Aug-16 12:31N 39°15' W 076°34'0 0.0
2016-Aug-16 11:30N 39°15' W 076°34'0 0.0
2016-Aug-16 10:30N 39°15' W 076°34'0 0.0
2016-Aug-16 09:30N 39°15' W 076°34'0 0.0
2016-Aug-16 08:31N 39°15' W 076°34'0 0.0
2016-Aug-16 07:31N 39°15' W 076°34'0 0.0
2016-Aug-16 04:30N 39°15' W 076°34'0 0.0
2016-Aug-16 03:30N 39°15' W 076°34'0 0.0
2016-Aug-16 02:30N 39°15' W 076°34'0 0.0
2016-Aug-16 01:30N 39°15' W 076°34'0 0.0
2016-Aug-16 00:30N 39°15' W 076°34'0 0.0
2016-Aug-15 23:30N 39°15' W 076°34'0 0.0
2016-Aug-15 22:30N 39°15' W 076°34'0 0.0
2016-Aug-15 21:30N 39°15' W 076°34'0 0.0
2016-Aug-15 20:30N 39°15' W 076°34'0 0.0
2016-Aug-15 19:30N 39°15' W 076°34'0 0.0
2016-Aug-15 18:30N 39°15' W 076°34'0 0.0
2016-Aug-15 16:10N 39°15' W 076°34'0 0.0
2016-Aug-15 15:30N 39°15' W 076°34'0 0.0
2016-Aug-15 14:30N 39°15' W 076°34'0 0.0
2016-Aug-15 13:33N 39°15' W 076°34'0 0.0
2016-Aug-15 12:30N 39°15' W 076°34'0 0.0
2016-Aug-15 11:33N 39°15' W 076°34'0 0.0
2016-Aug-15 10:33N 39°15' W 076°34'0 0.0
2016-Aug-15 09:31N 39°15' W 076°34'0 0.0
2016-Aug-15 08:30N 39°15' W 076°34'0 0.0
2016-Aug-15 07:32N 39°15' W 076°34'0 0.0
2016-Aug-15 06:30N 39°15' W 076°34'0 0.0
2016-Aug-15 04:31N 39°15' W 076°34'0 0.0
2016-Aug-15 03:32N 39°15' W 076°34'0 0.0
2016-Aug-15 02:33N 39°15' W 076°34'0 0.0
2016-Aug-15 01:33N 39°15' W 076°34'0 0.0
2016-Aug-15 00:30N 39°15' W 076°34'0 0.0
2016-Aug-14 23:30N 39°15' W 076°34'0 0.0
2016-Aug-14 22:30N 39°15' W 076°34'1 0.5
2016-Aug-14 20:33N 39°15' W 076°33'0 0.2
2016-Aug-14 19:25N 39°16' W 076°33'0 0.0
2016-Aug-14 18:32N 39°16' W 076°33'2 1.8
2016-Aug-14 17:20N 39°17' W 076°36'0 0.0
2016-Aug-14 16:10N 39°17' W 076°36'0 0.0
2016-Aug-14 15:31N 39°17' W 076°36'0 0.0
2016-Aug-14 13:17N 39°17' W 076°36'0 0.0
2016-Aug-14 12:33N 39°17' W 076°36'0 0.0
2016-Aug-14 11:20N 39°17' W 076°36'0 0.0
2016-Aug-14 10:22N 39°17' W 076°36'0 0.0
2016-Aug-14 09:32N 39°17' W 076°36'0 0.0
2016-Aug-14 08:32N 39°17' W 076°36'0 0.0
2016-Aug-14 07:33N 39°17' W 076°36'0 0.0
2016-Aug-14 06:31N 39°17' W 076°36'0 0.0
2016-Aug-14 04:32N 39°17' W 076°36'0 0.0
2016-Aug-14 03:33N 39°17' W 076°36'0 0.0
2016-Aug-14 02:33N 39°17' W 076°36'0 0.0
2016-Aug-14 01:28N 39°17' W 076°36'0 0.0
2016-Aug-14 00:29N 39°17' W 076°36'0 0.0
2016-Aug-13 23:29N 39°17' W 076°36'0 0.0
2016-Aug-13 22:30N 39°17' W 076°36'0 0.0
2016-Aug-13 21:31N 39°17' W 076°36'0 0.0
2016-Aug-13 20:31N 39°17' W 076°36'0 0.0
2016-Aug-13 19:32N 39°17' W 076°36'0 0.0
2016-Aug-13 18:27N 39°17' W 076°36'0 0.0
2016-Aug-13 17:30N 39°17' W 076°36'0 0.0
2016-Aug-13 16:28N 39°17' W 076°36'0 0.0
2016-Aug-13 15:29N 39°17' W 076°36'0 0.0
2016-Aug-13 14:32N 39°17' W 076°36'0 0.0
2016-Aug-13 13:30N 39°17' W 076°36'0 0.0
2016-Aug-13 12:31N 39°17' W 076°36'0 0.0
2016-Aug-13 11:31N 39°17' W 076°36'0 0.0
2016-Aug-13 10:32N 39°17' W 076°36'0 0.0
2016-Aug-13 09:33N 39°17' W 076°36'0 0.0
2016-Aug-13 08:30N 39°17' W 076°36'0 0.0
2016-Aug-13 07:31N 39°17' W 076°36'0 0.0
2016-Aug-13 06:32N 39°17' W 076°36'0 0.0
2016-Aug-13 05:32N 39°17' W 076°36'0 0.0
2016-Aug-13 04:33N 39°17' W 076°36'0 0.0
2016-Aug-13 03:31N 39°17' W 076°36'2 2.5
2016-Aug-13 02:31N 39°15' W 076°34'0 0.0
2016-Aug-13 01:32N 39°15' W 076°34'0 0.0
2016-Aug-13 00:32N 39°15' W 076°34'0 0.0
2016-Aug-12 23:30N 39°15' W 076°34'0 0.0
2016-Aug-12 22:30N 39°15' W 076°34'0 0.0
2016-Aug-12 21:30N 39°15' W 076°34'0 0.0
2016-Aug-12 20:30N 39°15' W 076°34'0 0.0
2016-Aug-12 19:30N 39°15' W 076°34'0 0.0
2016-Aug-12 18:30N 39°15' W 076°34'0 0.0
2016-Aug-12 17:30N 39°15' W 076°34'0 0.0
2016-Aug-12 16:30N 39°15' W 076°34'0 0.0
2016-Aug-12 15:30N 39°15' W 076°34'0 0.0
2016-Aug-12 14:10N 39°15' W 076°34'0 0.0
2016-Aug-12 13:20N 39°15' W 076°34'0 0.0
2016-Aug-12 12:30N 39°15' W 076°34'0 0.0
2016-Aug-12 09:30N 39°15' W 076°34'  
Track history (hours):
 
Tides and Currents Weather Stations Pressure Air Temp Water Temp Dewpoint Dewpoint Depression Visibility Wind Speed Wind Dir Waves Ship Positions

Susquehanna

Owner: Vane Line Bunkering, Inc., Baltimore, MD. More information available from US FCC via Universal Licensing System and Coast Guard Vessel Documentation Center.

Last reported at 2016-Aug-22 08:21 UTC. Time now 2016-Aug-31 06:06 UTC.
Position N 25°40' W 080°03'.
Warning: this ship's position is 8 days out of date.

Length 28 m; draft 4.2 m.

Type: Tug. MMSI: 367318750.

Date/timePositionNaut miles runAvg speedWind from/ knotsBaromVisibWave heightAir tempDewpointWater temp
2016-Aug-22 08:21N 25°40' W 080°03'5 6.6
2016-Aug-22 07:34N 25°45' W 080°03'7 6.9
2016-Aug-22 06:34N 25°52' W 080°03'7 7.1
2016-Aug-22 05:34N 25°59' W 080°04'7 7.0
2016-Aug-22 04:33N 26°07' W 080°03'7 7.0
2016-Aug-22 03:33N 26°13' W 080°03'7 6.9
2016-Aug-22 02:33N 26°20' W 080°02'6 6.4
2016-Aug-22 01:33N 26°27' W 080°01'6 6.0
2016-Aug-22 00:33N 26°33' W 080°01'22 5.5
2016-Aug-21 20:33N 26°55' W 079°60'8 7.7
2016-Aug-21 19:33N 27°02' W 080°01'  
2016-Aug-18 11:20N 36°51' W 075°55'146 8.7
2016-Aug-17 18:32N 39°14' W 076°33'1 1.0
2016-Aug-17 17:30N 39°15' W 076°34'0 0.0
2016-Aug-17 16:30N 39°15' W 076°34'0 0.0
2016-Aug-17 15:30N 39°15' W 076°34'0 0.0
2016-Aug-17 14:30N 39°15' W 076°34'0 0.0
2016-Aug-17 13:30N 39°15' W 076°34'0 0.0
2016-Aug-17 12:30N 39°15' W 076°34'0 0.0
2016-Aug-17 11:30N 39°15' W 076°34'0 0.0
2016-Aug-17 10:30N 39°15' W 076°34'0 0.0
2016-Aug-17 09:30N 39°15' W 076°34'0 0.0
2016-Aug-17 08:30N 39°15' W 076°34'0 0.0
2016-Aug-17 07:30N 39°15' W 076°34'0 0.0
2016-Aug-17 06:30N 39°15' W 076°34'0 0.0
2016-Aug-17 04:30N 39°15' W 076°34'0 0.0
2016-Aug-17 03:30N 39°15' W 076°34'0 0.0
2016-Aug-17 02:30N 39°15' W 076°34'0 0.0
2016-Aug-17 01:30N 39°15' W 076°34'0 0.0
2016-Aug-17 00:30N 39°15' W 076°34'0 0.0
2016-Aug-16 23:20N 39°15' W 076°34'0 0.0
2016-Aug-16 22:30N 39°15' W 076°34'0 0.0
2016-Aug-16 21:30N 39°15' W 076°34'0 0.0
2016-Aug-16 20:30N 39°15' W 076°34'0 0.0
2016-Aug-16 19:30N 39°15' W 076°34'0 0.0
2016-Aug-16 18:30N 39°15' W 076°34'0 0.0
2016-Aug-16 17:30N 39°15' W 076°34'0 0.0
2016-Aug-16 16:30N 39°15' W 076°34'0 0.0
2016-Aug-16 15:30N 39°15' W 076°34'0 0.0
2016-Aug-16 14:30N 39°15' W 076°34'0 0.0
2016-Aug-16 13:30N 39°15' W 076°34'0 0.0
2016-Aug-16 12:31N 39°15' W 076°34'0 0.0
2016-Aug-16 11:30N 39°15' W 076°34'0 0.0
2016-Aug-16 10:30N 39°15' W 076°34'0 0.0
2016-Aug-16 09:30N 39°15' W 076°34'0 0.0
2016-Aug-16 08:31N 39°15' W 076°34'0 0.0
2016-Aug-16 07:31N 39°15' W 076°34'0 0.0
2016-Aug-16 04:30N 39°15' W 076°34'0 0.0
2016-Aug-16 03:30N 39°15' W 076°34'0 0.0
2016-Aug-16 02:30N 39°15' W 076°34'0 0.0
2016-Aug-16 01:30N 39°15' W 076°34'0 0.0
2016-Aug-16 00:30N 39°15' W 076°34'0 0.0
2016-Aug-15 23:30N 39°15' W 076°34'0 0.0
2016-Aug-15 22:30N 39°15' W 076°34'0 0.0
2016-Aug-15 21:30N 39°15' W 076°34'0 0.0
2016-Aug-15 20:30N 39°15' W 076°34'0 0.0
2016-Aug-15 19:30N 39°15' W 076°34'0 0.0
2016-Aug-15 18:30N 39°15' W 076°34'0 0.0
2016-Aug-15 16:10N 39°15' W 076°34'0 0.0
2016-Aug-15 15:30N 39°15' W 076°34'0 0.0
2016-Aug-15 14:30N 39°15' W 076°34'0 0.0
2016-Aug-15 13:33N 39°15' W 076°34'0 0.0
2016-Aug-15 12:30N 39°15' W 076°34'0 0.0
2016-Aug-15 11:33N 39°15' W 076°34'0 0.0
2016-Aug-15 10:33N 39°15' W 076°34'0 0.0
2016-Aug-15 09:31N 39°15' W 076°34'0 0.0
2016-Aug-15 08:30N 39°15' W 076°34'0 0.0
2016-Aug-15 07:32N 39°15' W 076°34'0 0.0
2016-Aug-15 06:30N 39°15' W 076°34'0 0.0
2016-Aug-15 04:31N 39°15' W 076°34'0 0.0
2016-Aug-15 03:32N 39°15' W 076°34'0 0.0
2016-Aug-15 02:33N 39°15' W 076°34'0 0.0
2016-Aug-15 01:33N 39°15' W 076°34'0 0.0
2016-Aug-15 00:30N 39°15' W 076°34'0 0.0
2016-Aug-14 23:30N 39°15' W 076°34'0 0.0
2016-Aug-14 22:30N 39°15' W 076°34'1 0.5
2016-Aug-14 20:33N 39°15' W 076°33'0 0.2
2016-Aug-14 19:25N 39°16' W 076°33'0 0.0
2016-Aug-14 18:32N 39°16' W 076°33'2 1.8
2016-Aug-14 17:20N 39°17' W 076°36'0 0.0
2016-Aug-14 16:10N 39°17' W 076°36'0 0.0
2016-Aug-14 15:31N 39°17' W 076°36'0 0.0
2016-Aug-14 13:17N 39°17' W 076°36'0 0.0
2016-Aug-14 12:33N 39°17' W 076°36'0 0.0
2016-Aug-14 11:20N 39°17' W 076°36'0 0.0
2016-Aug-14 10:22N 39°17' W 076°36'0 0.0
2016-Aug-14 09:32N 39°17' W 076°36'0 0.0
2016-Aug-14 08:32N 39°17' W 076°36'0 0.0
2016-Aug-14 07:33N 39°17' W 076°36'0 0.0
2016-Aug-14 06:31N 39°17' W 076°36'0 0.0
2016-Aug-14 04:32N 39°17' W 076°36'0 0.0
2016-Aug-14 03:33N 39°17' W 076°36'0 0.0
2016-Aug-14 02:33N 39°17' W 076°36'0 0.0
2016-Aug-14 01:28N 39°17' W 076°36'0 0.0
2016-Aug-14 00:29N 39°17' W 076°36'0 0.0
2016-Aug-13 23:29N 39°17' W 076°36'0 0.0
2016-Aug-13 22:30N 39°17' W 076°36'0 0.0
2016-Aug-13 21:31N 39°17' W 076°36'0 0.0
2016-Aug-13 20:31N 39°17' W 076°36'0 0.0
2016-Aug-13 19:32N 39°17' W 076°36'0 0.0
2016-Aug-13 18:27N 39°17' W 076°36'0 0.0
2016-Aug-13 17:30N 39°17' W 076°36'0 0.0
2016-Aug-13 16:28N 39°17' W 076°36'0 0.0
2016-Aug-13 15:29N 39°17' W 076°36'0 0.0
2016-Aug-13 14:32N 39°17' W 076°36'0 0.0
2016-Aug-13 13:30N 39°17' W 076°36'0 0.0
2016-Aug-13 12:31N 39°17' W 076°36'0 0.0
2016-Aug-13 11:31N 39°17' W 076°36'0 0.0
2016-Aug-13 10:32N 39°17' W 076°36'0 0.0
2016-Aug-13 09:33N 39°17' W 076°36'0 0.0
2016-Aug-13 08:30N 39°17' W 076°36'0 0.0
2016-Aug-13 07:31N 39°17' W 076°36'0 0.0
2016-Aug-13 06:32N 39°17' W 076°36'0 0.0
2016-Aug-13 05:32N 39°17' W 076°36'0 0.0
2016-Aug-13 04:33N 39°17' W 076°36'0 0.0
2016-Aug-13 03:31N 39°17' W 076°36'2 2.5
2016-Aug-13 02:31N 39°15' W 076°34'0 0.0
2016-Aug-13 01:32N 39°15' W 076°34'0 0.0
2016-Aug-13 00:32N 39°15' W 076°34'0 0.0
2016-Aug-12 23:30N 39°15' W 076°34'0 0.0
2016-Aug-12 22:30N 39°15' W 076°34'0 0.0
2016-Aug-12 21:30N 39°15' W 076°34'0 0.0
2016-Aug-12 20:30N 39°15' W 076°34'0 0.0
2016-Aug-12 19:30N 39°15' W 076°34'0 0.0
2016-Aug-12 18:30N 39°15' W 076°34'0 0.0
2016-Aug-12 17:30N 39°15' W 076°34'0 0.0
2016-Aug-12 16:30N 39°15' W 076°34'0 0.0
2016-Aug-12 15:30N 39°15' W 076°34'0 0.0
2016-Aug-12 14:10N 39°15' W 076°34'0 0.0
2016-Aug-12 13:20N 39°15' W 076°34'0 0.0
2016-Aug-12 12:30N 39°15' W 076°34'0 0.0
2016-Aug-12 09:30N 39°15' W 076°34'  

Dump ship's entire track history